עמוד ראשי
METAR-TAF:

METAR-TAF

שדות תעופה :

נמל התעופה הבינלאומי המלך עבד אל-עזיז

ג'דה, ערב הסעודית

קו רוחב: 21-42N, קו אורך: 039-11E, גובה: 15מטר

תצפית מזג אוויר נוכחית

הדו"ח נערך לפני 1 שעות ו 2דקות, בשעה 20:00 UTC
רוח 4קשר מכיוון צפון
טמפרטורת 32 צלסיוס
לחות 59%
לחץ 1006 hPa
ראות 10 קילומטר או יותר
ללא עננים שבסיסם נמוך מ 5000 רגל או קומולונימבוס

METAR: OEJN 132000Z 35004KT CAVOK 32/23 Q1006 NOSIG

זמן: 00:02 (21:02 UTC)

תחזית

הדו"ח נערך לפני 4 שעות ו 2דקות, בשעה 17:00 UTC
תחזית בתוקף מ 13 ב 18 UTC עד 14 ב 24 UTC
רוח 3קשר עם כיוונים משתנים
ראות: 7000מטר
מעט עננים בגובה 4000רגל
יעשה מ
14 ב 06 UTC עד 14 ב 08 UTC
רוח 13קשר מכיוון דרום-מערב
ראות 10 קילומטר או יותר
יעשה מ
14 ב 18 UTC עד 14 ב 20 UTC
רוח 3קשר עם כיוונים משתנים

TAF: OEJN 131700Z 1318/1424 VRB03KT 7000 FEW040 BECMG 1406/1408 22013KT 9999 BECMG 1418/1420 VRB03KT

תצפיות ותחזיות מזג אוויר לגבי יותר מ- 4,000 שדות תעופה ברחבי העולם. דוחות METAR ו- TAF.

התחנות הזמינות מסומנות בנקודות צהובות ואדומות על גבי המפה.

העבר את העכבר לנקודה הצבעונית על מנת לראות את שם התחנה.

לאחר מכן, לחץ כדי לראות את תוכן ואת תחזיות מזג האוויר.

כדי לשנות את המפה: לחץ על הכפתורים הירוקים עם הפלוס השחור כדי להתקרב; על הכפתור הירוק עם המקף כדי להתרחק; או בחיצים הירוקים למפות סמוכות.


METAR-TAF: